Impacts METAR Board INFO
IDs:

KLAS - Las Vegas/McCarran I, NV, US

Updated at: 1433 UTC 22 Feb 2018
Potential Impact None Slight Moderate High
Time22/02Z 22/03Z 22/04Z 22/05Z 22/06Z 22/07Z 22/08Z 22/09Z 22/10Z 22/11Z 22/12Z 22/13Z 22/14Z
VIS 10 10 10 10 10 10 10 10 10 10 10
CIG -- -- -- -- -- -- -- -- -- -- --
CoverSCTFEWFEWFEWCLRCLRCLRFEWFEWFEWFEW
FltCatVFRVFRVFRVFRVFRVFRVFRVFRVFRVFRVFR
WX----------------------
WDir200230200190200200210210000
WSpd 3 5 4 3 4 4 4 3 0 0 0
WGst -- -- -- -- -- -- -- -- -- -- --
Raw hourly METARs


KLAS 220356Z 20003KT 10SM FEW100 SCT120 08/M11 A3008 RMK AO2 SLP189 T00781106
KLAS 220456Z 23005KT 10SM FEW120 07/M10 A3009 RMK AO2 SLP194 T00671100
KLAS 220556Z 20004KT 10SM FEW120 06/M11 A3009 RMK AO2 SLP193 T00561106 10100 20056 50003
KLAS 220656Z 19003KT 10SM FEW120 05/M10 A3009 RMK AO2 SLP191 T00501100
KLAS 220756Z 20004KT 10SM CLR 04/M11 A3009 RMK AO2 SLP192 T00441111 401000039
KLAS 220856Z 20004KT 10SM CLR 03/M11 A3008 RMK AO2 SLP188 T00331111 58004
KLAS 220956Z 21004KT 10SM CLR 03/M11 A3007 RMK AO2 SLP186 T00281111
KLAS 221056Z 21003KT 10SM FEW250 02/M11 A3006 RMK AO2 SLP184 T00221111
KLAS 221156Z 00000KT 10SM FEW250 02/M11 A3007 RMK AO2 SLP185 T00221111 10056 20017 55003
KLAS 221256Z 00000KT 10SM FEW250 02/M11 A3007 RMK AO2 SLP186 T00221106
KLAS 221356Z 00000KT 10SM FEW250 02/M11 A3007 RMK AO2 SLP189 T00221111